Time;durP1;ratioP1;P1;durP2;ratioP2;P2;SDS_P1;SDS_P2;PMS_P1;PMS_P2;Temp;Humidity;BMP_temperature;BMP_pressure;BME280_temperature;BME280_humidity;BME280_pressure;Samples;Min_cycle;Max_cycle;Signal;HPM_P1;HPM_P2
2022/12/30 00:00:59;;;;;;;8.48;2.40;;;;;;;;;;4954774;28;20675;-71
2022/12/30 00:03:30;;;;;;;12.27;2.45;;;;;;;;;;4952497;28;20047;-72
2022/12/30 00:05:56;;;;;;;6.15;2.25;;;;;;;;;;4964640;28;20050;-73
2022/12/30 00:11:06;;;;;;;10.90;2.58;;;;;;;;;;4954870;28;20055;-71
2022/12/30 00:33:25;;;;;;;5.20;2.35;;;;;;;;;;4960670;28;20051;-74
2022/12/30 00:35:51;;;;;;;7.55;2.60;;;;;;;;;;4950975;28;20690;-75
2022/12/30 00:38:17;;;;;;;8.20;2.60;;;;;;;;;;4951778;28;20067;-72
2022/12/30 00:43:07;;;;;;;7.93;2.15;;;;;;;;;;4959293;28;20051;-71
2022/12/30 00:43:29;;;;;;;8.23;2.47;;;;;;;;;;4954713;28;20506;-72
2022/12/30 00:45:56;;;;;;;8.55;2.53;;;;;;;;;;4955222;28;20055;-71
2022/12/30 00:56:37;;;;;;;5.32;3.38;;;;;;;;;;4950521;28;20047;-70
2022/12/30 00:59:04;;;;;;;13.57;2.03;;;;;;;;;;4951595;28;20086;-72
2022/12/30 01:01:31;;;;;;;8.23;2.25;;;;;;;;;;4956414;28;20082;-71
2022/12/30 01:03:57;;;;;;;8.57;2.25;;;;;;;;;;4962453;28;20141;-69
2022/12/30 01:06:23;;;;;;;12.23;2.50;;;;;;;;;;4954512;28;20062;-69
2022/12/30 01:08:48;;;;;;;6.45;2.60;;;;;;;;;;4956760;28;20054;-74
2022/12/30 01:11:14;;;;;;;6.60;2.30;;;;;;;;;;4957420;28;20070;-68
2022/12/30 01:13:40;;;;;;;7.35;2.20;;;;;;;;;;4951021;28;20847;-72
2022/12/30 01:16:12;;;;;;;9.02;2.58;;;;;;;;;;4960380;28;20465;-71
2022/12/30 01:18:39;;;;;;;10.73;2.50;;;;;;;;;;4954300;28;20039;-70
2022/12/30 01:21:05;;;;;;;7.53;2.58;;;;;;;;;;4959360;28;20046;-72
2022/12/30 01:23:31;;;;;;;13.23;2.70;;;;;;;;;;4955737;28;20053;-69
2022/12/30 01:26:02;;;;;;;8.57;2.03;;;;;;;;;;4961361;28;20051;-68
2022/12/30 01:28:30;;;;;;;7.28;2.22;;;;;;;;;;4954282;28;20862;-70
2022/12/30 01:30:57;;;;;;;7.82;2.53;;;;;;;;;;4960056;28;20051;-71
2022/12/30 01:33:23;;;;;;;5.20;2.25;;;;;;;;;;4957186;28;20058;-73
2022/12/30 01:35:49;;;;;;;6.72;2.10;;;;;;;;;;4962088;28;20069;-71
2022/12/30 01:38:15;;;;;;;6.82;2.47;;;;;;;;;;4955550;28;20279;-70
2022/12/30 01:40:42;;;;;;;7.57;2.60;;;;;;;;;;4953379;28;20047;-70
2022/12/30 01:43:17;;;;;;;11.02;3.03;;;;;;;;;;4959810;28;20500;-72
2022/12/30 01:45:52;;;;;;;8.80;2.53;;;;;;;;;;4956730;28;20055;-71
2022/12/30 01:48:32;;;;;;;12.73;2.63;;;;;;;;;;4955659;28;20077;-73
2022/12/30 01:51:00;;;;;;;11.25;3.22;;;;;;;;;;4951644;28;20125;-72
2022/12/30 01:53:29;;;;;;;9.40;2.75;;;;;;;;;;4954038;28;20055;-73
2022/12/30 01:56:01;;;;;;;13.10;2.40;;;;;;;;;;4955694;28;20058;-72
2022/12/30 01:58:35;;;;;;;11.35;2.35;;;;;;;;;;4952468;28;20044;-70
2022/12/30 02:01:02;;;;;;;8.32;2.20;;;;;;;;;;4961418;28;20042;-71
2022/12/30 02:03:34;;;;;;;8.77;3.58;;;;;;;;;;4955291;28;20138;-70
2022/12/30 02:06:02;;;;;;;6.18;2.20;;;;;;;;;;4957027;28;20137;-72
2022/12/30 02:08:32;;;;;;;7.82;2.72;;;;;;;;;;4953715;28;20175;-72
2022/12/30 02:10:58;;;;;;;10.77;2.50;;;;;;;;;;4959796;28;20051;-69
2022/12/30 02:13:24;;;;;;;15.13;2.80;;;;;;;;;;4947622;28;20652;-70
2022/12/30 02:16:14;;;;;;;9.70;2.60;;;;;;;;;;4949153;28;20469;-69
2022/12/30 02:18:58;;;;;;;11.95;2.65;;;;;;;;;;4953980;28;20201;-71
2022/12/30 02:22:00;;;;;;;12.35;2.42;;;;;;;;;;4960102;28;20442;-73
2022/12/30 02:24:29;;;;;;;12.88;2.42;;;;;;;;;;4956389;28;20057;-70
2022/12/30 02:27:13;;;;;;;12.35;2.72;;;;;;;;;;4955259;28;20047;-70
2022/12/30 02:30:02;;;;;;;18.83;3.50;;;;;;;;;;4958527;28;20050;-70
2022/12/30 02:32:51;;;;;;;15.35;3.13;;;;;;;;;;4959572;28;20042;-72
2022/12/30 02:35:21;;;;;;;9.98;2.70;;;;;;;;;;4952953;28;20059;-70
2022/12/30 02:38:09;;;;;;;9.85;2.47;;;;;;;;;;4952207;28;20051;-72
2022/12/30 02:46:22;;;;;;;13.02;2.40;;;;;;;;;;4959721;28;20046;-70
2022/12/30 02:48:52;;;;;;;7.20;2.17;;;;;;;;;;4955464;28;20423;-70
2022/12/30 02:54:03;;;;;;;11.68;2.63;;;;;;;;;;4958958;28;20078;-71
2022/12/30 02:56:29;;;;;;;10.55;2.60;;;;;;;;;;4954779;28;20058;-70
2022/12/30 03:05:17;;;;;;;17.27;2.38;;;;;;;;;;4960815;28;20062;-70
2022/12/30 03:07:54;;;;;;;8.82;2.92;;;;;;;;;;4942704;28;20043;-71
2022/12/30 03:13:44;;;;;;;15.63;2.58;;;;;;;;;;4956872;28;20039;-72
2022/12/30 03:16:16;;;;;;;13.00;2.35;;;;;;;;;;4952096;28;20471;-71
2022/12/30 03:18:43;;;;;;;15.00;3.13;;;;;;;;;;4958800;28;20460;-70
2022/12/30 03:21:11;;;;;;;10.32;2.58;;;;;;;;;;4955314;28;20203;-70
2022/12/30 03:29:18;;;;;;;10.73;2.35;;;;;;;;;;4953677;28;20051;-70
2022/12/30 03:31:44;;;;;;;13.23;3.13;;;;;;;;;;4955592;28;20069;-73
2022/12/30 03:34:10;;;;;;;9.60;2.50;;;;;;;;;;4956752;28;20415;-71
2022/12/30 03:36:46;;;;;;;11.68;2.65;;;;;;;;;;4955073;28;20110;-70
2022/12/30 03:39:16;;;;;;;12.50;2.70;;;;;;;;;;4953213;28;20181;-68
2022/12/30 03:41:45;;;;;;;11.82;2.95;;;;;;;;;;4955716;28;20059;-71
2022/12/30 03:44:11;;;;;;;16.67;3.38;;;;;;;;;;4953178;28;20110;-73
2022/12/30 03:46:41;;;;;;;15.45;2.90;;;;;;;;;;4953123;28;20049;-72
2022/12/30 03:49:06;;;;;;;14.10;2.95;;;;;;;;;;4951197;28;20106;-72
2022/12/30 03:51:33;;;;;;;12.75;2.58;;;;;;;;;;4959404;28;20070;-69
2022/12/30 03:53:59;;;;;;;16.08;2.50;;;;;;;;;;4947945;28;20046;-70
2022/12/30 03:56:25;;;;;;;9.32;2.90;;;;;;;;;;4957724;28;20076;-69
2022/12/30 03:58:51;;;;;;;12.00;2.33;;;;;;;;;;4959892;28;20050;-67
2022/12/30 04:01:17;;;;;;;15.32;2.97;;;;;;;;;;4957721;28;20069;-68
2022/12/30 04:03:42;;;;;;;13.90;2.55;;;;;;;;;;4960269;28;20167;-71
2022/12/30 04:06:09;;;;;;;8.55;2.35;;;;;;;;;;4954788;28;20489;-70
2022/12/30 04:08:34;;;;;;;16.52;2.60;;;;;;;;;;4955524;28;20051;-68
2022/12/30 04:11:00;;;;;;;12.50;2.90;;;;;;;;;;4956695;28;20055;-68
2022/12/30 04:13:26;;;;;;;12.60;2.40;;;;;;;;;;4950060;28;20095;-67
2022/12/30 04:15:52;;;;;;;9.15;3.00;;;;;;;;;;4952419;28;20357;-68
2022/12/30 04:18:18;;;;;;;8.93;2.60;;;;;;;;;;4962365;28;20051;-69
2022/12/30 04:20:46;;;;;;;12.70;2.63;;;;;;;;;;4956818;28;20129;-67
2022/12/30 04:23:12;;;;;;;15.73;3.00;;;;;;;;;;4952217;28;20042;-69
2022/12/30 04:25:38;;;;;;;15.13;2.97;;;;;;;;;;4956285;28;20062;-67
2022/12/30 04:28:04;;;;;;;13.98;3.55;;;;;;;;;;4955418;28;20606;-68
2022/12/30 04:30:30;;;;;;;13.63;2.78;;;;;;;;;;4951365;28;20141;-67
2022/12/30 04:32:55;;;;;;;11.73;2.63;;;;;;;;;;4954670;28;20490;-67
2022/12/30 04:35:21;;;;;;;12.38;2.85;;;;;;;;;;4955201;28;20060;-68
2022/12/30 04:37:48;;;;;;;12.68;2.35;;;;;;;;;;4959203;28;20046;-68
2022/12/30 04:40:15;;;;;;;18.90;2.28;;;;;;;;;;4956326;28;20050;-66
2022/12/30 04:42:41;;;;;;;9.18;2.67;;;;;;;;;;4958259;28;20065;-68
2022/12/30 04:45:07;;;;;;;14.43;3.05;;;;;;;;;;4952694;28;20488;-68
2022/12/30 04:47:33;;;;;;;9.35;2.47;;;;;;;;;;4956981;28;20485;-68
2022/12/30 04:49:59;;;;;;;14.13;2.60;;;;;;;;;;4952722;28;20680;-69
2022/12/30 04:52:25;;;;;;;12.63;2.92;;;;;;;;;;4955884;28;20039;-67
2022/12/30 04:54:51;;;;;;;9.23;3.83;;;;;;;;;;4959186;28;20058;-68
2022/12/30 04:57:17;;;;;;;11.38;2.90;;;;;;;;;;4957464;28;20049;-69
2022/12/30 04:59:43;;;;;;;18.02;2.53;;;;;;;;;;4953723;28;20039;-68
2022/12/30 05:02:09;;;;;;;9.00;2.50;;;;;;;;;;4958207;28;20570;-69
2022/12/30 05:04:35;;;;;;;14.85;2.17;;;;;;;;;;4954541;28;20066;-69
2022/12/30 05:07:03;;;;;;;9.05;2.40;;;;;;;;;;4957434;28;20590;-66
2022/12/30 05:09:29;;;;;;;9.40;2.45;;;;;;;;;;4958616;28;20043;-67
2022/12/30 05:11:54;;;;;;;7.95;2.60;;;;;;;;;;4958666;28;20047;-67
2022/12/30 05:14:20;;;;;;;11.43;3.08;;;;;;;;;;4956871;28;20103;-70
2022/12/30 05:16:46;;;;;;;9.35;2.72;;;;;;;;;;4958546;28;20059;-68
2022/12/30 05:19:12;;;;;;;14.40;2.55;;;;;;;;;;4960353;28;20039;-69
2022/12/30 05:21:38;;;;;;;14.90;2.95;;;;;;;;;;4957138;28;20066;-69
2022/12/30 05:26:49;;;;;;;8.43;2.78;;;;;;;;;;4963335;28;20073;-73
2022/12/30 05:29:15;;;;;;;10.60;2.58;;;;;;;;;;4955493;28;20073;-70
2022/12/30 05:31:42;;;;;;;7.55;2.70;;;;;;;;;;4951907;28;20460;-70
2022/12/30 05:34:08;;;;;;;12.77;2.40;;;;;;;;;;4956239;28;20074;-71
2022/12/30 05:36:34;;;;;;;6.47;2.45;;;;;;;;;;4953306;28;20051;-71
2022/12/30 05:39:01;;;;;;;8.93;2.08;;;;;;;;;;4955782;28;20050;-68
2022/12/30 05:41:26;;;;;;;11.80;2.35;;;;;;;;;;4953755;28;20394;-67
2022/12/30 05:43:52;;;;;;;7.57;2.63;;;;;;;;;;4956059;28;20047;-69
2022/12/30 05:46:19;;;;;;;11.18;3.10;;;;;;;;;;4944656;28;20063;-68
2022/12/30 05:48:45;;;;;;;6.50;2.47;;;;;;;;;;4956712;28;20539;-69
2022/12/30 05:51:11;;;;;;;8.38;2.28;;;;;;;;;;4957567;28;20043;-69
2022/12/30 05:53:37;;;;;;;8.10;2.40;;;;;;;;;;4952808;28;20133;-71
2022/12/30 05:56:03;;;;;;;14.80;3.15;;;;;;;;;;4954830;28;20463;-67
2022/12/30 05:58:29;;;;;;;12.43;3.65;;;;;;;;;;4956620;28;20055;-68
2022/12/30 06:00:57;;;;;;;10.15;2.70;;;;;;;;;;4956917;28;20051;-67
2022/12/30 06:03:22;;;;;;;9.98;2.53;;;;;;;;;;4953593;28;20051;-70
2022/12/30 06:05:55;;;;;;;10.90;2.50;;;;;;;;;;4957761;28;20059;-70
2022/12/30 06:08:21;;;;;;;11.98;3.25;;;;;;;;;;4958140;28;20046;-69
2022/12/30 06:10:47;;;;;;;10.80;2.63;;;;;;;;;;4955258;28;20109;-68
2022/12/30 06:13:13;;;;;;;15.35;2.97;;;;;;;;;;4951816;28;20051;-70
2022/12/30 06:15:39;;;;;;;7.03;2.22;;;;;;;;;;4958601;28;20511;-69
2022/12/30 06:18:04;;;;;;;9.60;2.65;;;;;;;;;;4955920;28;20446;-69
2022/12/30 06:20:33;;;;;;;10.45;2.60;;;;;;;;;;4955367;28;20500;-68
2022/12/30 06:22:59;;;;;;;11.95;2.85;;;;;;;;;;4954703;28;20052;-68
2022/12/30 06:25:25;;;;;;;10.10;2.40;;;;;;;;;;4953912;28;20047;-69
2022/12/30 06:27:51;;;;;;;6.43;2.70;;;;;;;;;;4953317;28;20057;-70
2022/12/30 06:30:17;;;;;;;8.35;2.40;;;;;;;;;;4954308;28;20054;-67
2022/12/30 06:32:43;;;;;;;13.20;2.70;;;;;;;;;;4954556;28;20511;-71
2022/12/30 06:35:10;;;;;;;13.32;2.88;;;;;;;;;;4955409;28;20734;-70
2022/12/30 06:37:36;;;;;;;11.38;2.47;;;;;;;;;;4956460;28;20423;-71
2022/12/30 06:40:03;;;;;;;11.82;2.67;;;;;;;;;;4957604;28;20047;-72
2022/12/30 06:42:29;;;;;;;10.88;2.75;;;;;;;;;;4957260;28;20050;-68
2022/12/30 06:44:56;;;;;;;9.88;2.58;;;;;;;;;;4957618;28;20054;-69
2022/12/30 06:47:22;;;;;;;10.07;2.28;;;;;;;;;;4959184;28;20047;-69
2022/12/30 06:49:48;;;;;;;10.40;2.15;;;;;;;;;;4957264;28;20083;-71
2022/12/30 06:52:14;;;;;;;10.80;2.00;;;;;;;;;;4954845;28;20186;-70
2022/12/30 06:54:40;;;;;;;7.43;2.45;;;;;;;;;;4971985;28;20536;-70
2022/12/30 06:57:06;;;;;;;9.02;2.53;;;;;;;;;;4954535;28;20051;-68
2022/12/30 06:59:32;;;;;;;7.43;2.30;;;;;;;;;;4956130;28;20097;-69
2022/12/30 07:01:58;;;;;;;5.85;2.35;;;;;;;;;;4958553;28;20055;-70
2022/12/30 07:04:24;;;;;;;10.13;2.15;;;;;;;;;;4953799;28;20486;-69
2022/12/30 07:06:49;;;;;;;11.43;2.78;;;;;;;;;;4952378;28;20050;-68
2022/12/30 07:09:15;;;;;;;5.15;1.88;;;;;;;;;;4961272;28;20038;-70
2022/12/30 07:11:41;;;;;;;6.85;2.08;;;;;;;;;;4956744;28;20142;-68
2022/12/30 07:14:07;;;;;;;8.68;2.10;;;;;;;;;;4948611;28;20785;-68
2022/12/30 07:16:33;;;;;;;10.75;2.30;;;;;;;;;;4946639;28;20059;-68
2022/12/30 07:18:59;;;;;;;9.02;2.17;;;;;;;;;;4951150;28;20054;-69
2022/12/30 07:21:26;;;;;;;7.10;2.30;;;;;;;;;;4956995;28;20051;-68
2022/12/30 07:23:51;;;;;;;9.05;2.30;;;;;;;;;;4958101;28;20053;-67
2022/12/30 07:26:17;;;;;;;6.07;2.00;;;;;;;;;;4959316;28;20149;-68
2022/12/30 07:28:43;;;;;;;23.05;2.33;;;;;;;;;;4957833;28;20050;-68
2022/12/30 07:31:09;;;;;;;6.82;2.00;;;;;;;;;;4959168;28;20046;-69
2022/12/30 07:33:35;;;;;;;11.02;2.25;;;;;;;;;;4956383;28;20516;-72
2022/12/30 07:36:04;;;;;;;7.18;2.83;;;;;;;;;;4957505;28;20141;-71
2022/12/30 07:38:30;;;;;;;10.23;2.15;;;;;;;;;;4955334;28;20425;-74
2022/12/30 07:40:56;;;;;;;8.98;1.92;;;;;;;;;;4959944;28;20050;-69
2022/12/30 07:43:21;;;;;;;6.05;1.90;;;;;;;;;;4953999;28;20055;-69
2022/12/30 07:45:47;;;;;;;7.25;2.10;;;;;;;;;;4948317;28;20525;-70
2022/12/30 07:48:13;;;;;;;6.25;1.85;;;;;;;;;;4951547;28;20051;-71
2022/12/30 07:50:39;;;;;;;9.80;2.47;;;;;;;;;;4960076;28;20050;-71
2022/12/30 07:53:05;;;;;;;4.88;1.90;;;;;;;;;;4956750;28;20053;-68
2022/12/30 07:55:32;;;;;;;8.95;2.33;;;;;;;;;;4952026;28;20807;-70
2022/12/30 07:57:58;;;;;;;9.02;2.10;;;;;;;;;;4959858;28;20058;-68
2022/12/30 08:00:24;;;;;;;6.72;2.28;;;;;;;;;;4955790;28;20106;-67
2022/12/30 08:02:50;;;;;;;4.93;1.83;;;;;;;;;;4954607;28;20043;-69
2022/12/30 08:05:16;;;;;;;5.88;2.13;;;;;;;;;;4959327;28;20053;-68
2022/12/30 08:07:42;;;;;;;7.03;2.25;;;;;;;;;;4954444;28;20051;-68
2022/12/30 08:10:08;;;;;;;8.10;2.08;;;;;;;;;;4948721;28;20051;-70
2022/12/30 08:12:35;;;;;;;4.15;2.00;;;;;;;;;;4952346;28;20043;-68
2022/12/30 08:15:01;;;;;;;6.50;2.10;;;;;;;;;;4952071;28;20564;-67
2022/12/30 08:17:28;;;;;;;6.60;2.15;;;;;;;;;;4951723;28;20097;-68
2022/12/30 08:19:54;;;;;;;10.23;2.13;;;;;;;;;;4945401;28;20521;-67
2022/12/30 08:22:20;;;;;;;7.15;2.13;;;;;;;;;;4945071;28;20047;-69
2022/12/30 08:24:46;;;;;;;11.52;2.83;;;;;;;;;;4953843;28;20050;-72
2022/12/30 08:27:12;;;;;;;12.77;2.30;;;;;;;;;;4946108;28;20059;-68
2022/12/30 08:29:38;;;;;;;4.60;1.80;;;;;;;;;;4946416;28;20094;-69
2022/12/30 08:32:04;;;;;;;13.85;2.10;;;;;;;;;;4949464;28;20055;-70
2022/12/30 08:34:30;;;;;;;9.57;2.15;;;;;;;;;;4953591;28;20172;-68
2022/12/30 08:36:56;;;;;;;6.55;1.70;;;;;;;;;;4951885;28;20053;-70
2022/12/30 08:39:23;;;;;;;10.13;2.17;;;;;;;;;;4961592;28;20058;-67
2022/12/30 08:41:49;;;;;;;8.43;2.15;;;;;;;;;;4945696;28;20115;-68
2022/12/30 08:44:15;;;;;;;5.70;2.05;;;;;;;;;;4948813;28;20239;-67
2022/12/30 08:46:41;;;;;;;9.50;1.95;;;;;;;;;;4945865;28;20051;-68
2022/12/30 08:49:10;;;;;;;8.02;2.08;;;;;;;;;;4951899;28;20078;-70
2022/12/30 08:51:36;;;;;;;7.97;2.40;;;;;;;;;;4952490;28;20524;-69
2022/12/30 08:54:04;;;;;;;5.40;1.83;;;;;;;;;;4971876;28;20059;-71
2022/12/30 08:56:32;;;;;;;6.88;1.95;;;;;;;;;;4951741;28;20347;-70
2022/12/30 08:58:59;;;;;;;10.50;2.00;;;;;;;;;;4956443;28;20588;-68
2022/12/30 09:01:29;;;;;;;7.30;1.48;;;;;;;;;;4946586;28;20449;-70
2022/12/30 09:03:56;;;;;;;4.75;2.00;;;;;;;;;;4949020;28;20054;-69
2022/12/30 09:06:24;;;;;;;9.00;2.20;;;;;;;;;;4955571;28;20063;-72
2022/12/30 09:08:51;;;;;;;7.30;1.73;;;;;;;;;;4952743;28;20055;-70
2022/12/30 09:11:21;;;;;;;8.38;1.70;;;;;;;;;;4951762;28;20607;-71
2022/12/30 09:13:47;;;;;;;9.23;1.65;;;;;;;;;;4945336;28;20186;-70
2022/12/30 09:16:16;;;;;;;4.05;1.70;;;;;;;;;;4946009;28;20044;-70
2022/12/30 09:18:42;;;;;;;7.55;2.00;;;;;;;;;;4952686;28;20059;-69
2022/12/30 09:21:08;;;;;;;8.07;1.60;;;;;;;;;;4950550;28;20112;-68
2022/12/30 09:23:34;;;;;;;11.10;2.00;;;;;;;;;;4947707;28;20050;-70
2022/12/30 09:26:00;;;;;;;7.07;2.10;;;;;;;;;;4955645;28;20051;-69
2022/12/30 09:28:26;;;;;;;5.75;1.75;;;;;;;;;;4954954;28;20097;-68
2022/12/30 09:30:52;;;;;;;9.23;1.85;;;;;;;;;;4952921;28;20058;-70
2022/12/30 09:33:18;;;;;;;3.97;1.75;;;;;;;;;;4951051;28;20058;-70
2022/12/30 09:35:44;;;;;;;7.68;1.90;;;;;;;;;;4955120;28;20054;-70
2022/12/30 09:38:10;;;;;;;8.38;1.95;;;;;;;;;;4947211;28;20484;-69
2022/12/30 09:41:01;;;;;;;10.18;1.98;;;;;;;;;;4953337;28;20101;-71
2022/12/30 09:43:42;;;;;;;9.63;1.83;;;;;;;;;;4955429;28;20054;-72
2022/12/30 09:46:16;;;;;;;6.55;1.80;;;;;;;;;;4952678;28;20621;-67
2022/12/30 09:48:44;;;;;;;;;;;;;;;;;;4957176;28;20038;-68
2022/12/30 09:51:13;;;;;;;10.95;1.90;;;;;;;;;;4963583;28;20113;-68
2022/12/30 09:54:02;;;;;;;8.93;1.92;;;;;;;;;;4954370;28;20057;-70
2022/12/30 09:56:32;;;;;;;7.22;1.80;;;;;;;;;;4953374;28;20091;-68
2022/12/30 09:59:04;;;;;;;7.25;2.53;;;;;;;;;;4974595;28;20047;-68
2022/12/30 10:01:39;;;;;;;6.47;2.10;;;;;;;;;;4964828;28;20039;-70
2022/12/30 10:04:14;;;;;;;8.20;2.05;;;;;;;;;;4965474;28;20062;-69
2022/12/30 10:06:49;;;;;;;3.63;1.95;;;;;;;;;;4962143;28;20058;-68
2022/12/30 10:09:45;;;;;;;9.48;1.83;;;;;;;;;;4960751;28;20496;-70
2022/12/30 10:12:38;;;;;;;7.97;2.00;;;;;;;;;;4962802;28;20057;-69
2022/12/30 10:15:33;;;;;;;7.93;2.75;;;;;;;;;;4959959;28;20059;-67
2022/12/30 10:18:16;;;;;;;6.90;2.80;;;;;;;;;;4960928;28;20047;-68
2022/12/30 10:21:06;;;;;;;10.90;2.85;;;;;;;;;;4957644;28;20042;-67
2022/12/30 10:23:49;;;;;;;7.55;2.75;;;;;;;;;;4960084;28;20054;-68
2022/12/30 10:26:20;;;;;;;7.25;2.10;;;;;;;;;;4965165;28;20115;-66
2022/12/30 10:28:57;;;;;;;7.95;2.75;;;;;;;;;;4962791;28;20110;-68
2022/12/30 10:31:27;;;;;;;8.00;2.20;;;;;;;;;;4962396;28;20075;-70
2022/12/30 10:33:59;;;;;;;6.13;2.22;;;;;;;;;;4962238;28;20081;-69
2022/12/30 10:36:28;;;;;;;6.05;2.58;;;;;;;;;;4964683;28;20054;-70
2022/12/30 10:39:19;;;;;;;5.22;2.80;;;;;;;;;;4956685;28;20055;-66
2022/12/30 10:42:00;;;;;;;7.60;2.80;;;;;;;;;;4964574;28;20069;-68
2022/12/30 10:44:49;;;;;;;8.80;2.88;;;;;;;;;;4963621;28;20699;-69
2022/12/30 10:47:37;;;;;;;6.97;3.10;;;;;;;;;;4939755;28;20061;-71
2022/12/30 10:50:05;;;;;;;8.00;2.78;;;;;;;;;;4960871;28;20499;-68
2022/12/30 10:52:32;;;;;;;13.93;2.78;;;;;;;;;;4954997;28;20054;-70
2022/12/30 10:54:58;;;;;;;7.53;2.47;;;;;;;;;;4962702;28;20503;-70
2022/12/30 10:57:31;;;;;;;6.32;2.53;;;;;;;;;;4958475;28;20069;-72
2022/12/30 10:59:58;;;;;;;9.43;2.17;;;;;;;;;;4961273;28;20043;-67
2022/12/30 11:02:37;;;;;;;11.95;2.83;;;;;;;;;;4955161;28;20787;-68
2022/12/30 11:05:26;;;;;;;9.27;2.53;;;;;;;;;;4958520;28;20279;-68
2022/12/30 11:07:57;;;;;;;4.97;2.10;;;;;;;;;;4961305;28;20056;-70
2022/12/30 11:10:23;;;;;;;7.47;2.63;;;;;;;;;;4959079;28;20050;-69
2022/12/30 11:15:53;;;;;;;5.25;1.90;;;;;;;;;;4959063;28;20046;-69
2022/12/30 11:18:25;;;;;;;5.47;1.58;;;;;;;;;;4958712;28;20047;-71
2022/12/30 11:20:53;;;;;;;4.95;2.25;;;;;;;;;;4957899;28;20050;-67
2022/12/30 11:23:40;;;;;;;9.95;2.40;;;;;;;;;;4949500;28;20065;-70
2022/12/30 11:26:09;;;;;;;6.80;2.00;;;;;;;;;;4969820;28;20126;-69
2022/12/30 11:28:38;;;;;;;7.03;2.20;;;;;;;;;;4957523;28;20051;-68
2022/12/30 11:31:08;;;;;;;11.32;1.85;;;;;;;;;;4964105;28;20058;-70
2022/12/30 11:33:52;;;;;;;6.57;1.90;;;;;;;;;;4961609;28;20046;-70
2022/12/30 11:36:27;;;;;;;8.77;2.30;;;;;;;;;;4961140;28;20057;-69
2022/12/30 11:38:56;;;;;;;6.30;1.90;;;;;;;;;;4951702;28;20109;-68
2022/12/30 11:41:29;;;;;;;8.35;1.95;;;;;;;;;;4960491;28;20175;-70
2022/12/30 11:43:58;;;;;;;7.22;1.70;;;;;;;;;;4959920;28;20072;-68
2022/12/30 11:46:29;;;;;;;12.07;2.55;;;;;;;;;;4960052;28;20054;-68
2022/12/30 11:48:58;;;;;;;6.38;2.10;;;;;;;;;;4961330;28;20050;-69
2022/12/30 11:51:28;;;;;;;8.95;1.77;;;;;;;;;;4964370;28;20066;-69
2022/12/30 11:54:11;;;;;;;5.32;1.80;;;;;;;;;;4959311;28;20508;-70
2022/12/30 11:56:50;;;;;;;8.93;2.20;;;;;;;;;;4960717;28;20051;-69
2022/12/30 11:59:19;;;;;;;5.13;1.60;;;;;;;;;;4960059;28;20047;-71
2022/12/30 12:01:50;;;;;;;4.45;1.90;;;;;;;;;;4953346;28;20096;-69
2022/12/30 12:04:29;;;;;;;6.65;1.85;;;;;;;;;;4958115;28;20063;-69
2022/12/30 12:06:56;;;;;;;7.65;2.47;;;;;;;;;;4958706;28;20050;-68
2022/12/30 12:09:34;;;;;;;6.65;1.73;;;;;;;;;;4962402;28;20047;-68
2022/12/30 12:12:04;;;;;;;9.38;2.40;;;;;;;;;;4959299;28;20055;-68
2022/12/30 12:14:38;;;;;;;6.25;2.00;;;;;;;;;;4954313;28;20047;-67
2022/12/30 12:17:19;;;;;;;8.05;1.73;;;;;;;;;;4961970;28;20137;-69
2022/12/30 12:20:27;;;;;;;11.57;1.75;;;;;;;;;;4963031;28;20054;-69
2022/12/30 12:22:53;;;;;;;9.93;1.85;;;;;;;;;;4940429;28;20051;-67
2022/12/30 12:25:25;;;;;;;6.30;1.70;;;;;;;;;;4939216;29;20052;-68
2022/12/30 12:27:52;;;;;;;4.82;1.60;;;;;;;;;;4940720;28;20055;-69
2022/12/30 12:30:18;;;;;;;6.15;1.70;;;;;;;;;;4936205;28;20062;-69
2022/12/30 12:32:57;;;;;;;5.22;1.60;;;;;;;;;;4940626;28;20043;-70
2022/12/30 12:35:32;;;;;;;3.90;1.67;;;;;;;;;;4934844;28;20050;-68
2022/12/30 12:38:22;;;;;;;10.90;1.70;;;;;;;;;;4936153;29;20146;-69
2022/12/30 12:41:09;;;;;;;6.47;2.00;;;;;;;;;;4940492;28;20055;-71
2022/12/30 12:43:41;;;;;;;8.73;1.90;;;;;;;;;;4929607;28;20224;-70
2022/12/30 12:46:35;;;;;;;7.82;1.70;;;;;;;;;;4932636;29;20051;-69
2022/12/30 12:49:29;;;;;;;2.70;1.40;;;;;;;;;;4933952;29;20150;-69
2022/12/30 12:52:17;;;;;;;11.23;2.38;;;;;;;;;;4936357;29;20102;-69
2022/12/30 12:55:04;;;;;;;6.28;1.77;;;;;;;;;;4959193;28;20050;-68
2022/12/30 12:57:54;;;;;;;5.63;1.80;;;;;;;;;;4957415;28;20101;-70
2022/12/30 13:00:23;;;;;;;7.07;1.95;;;;;;;;;;4962899;28;20157;-70
2022/12/30 13:03:01;;;;;;;5.15;1.77;;;;;;;;;;4967449;28;20061;-70
2022/12/30 13:05:31;;;;;;;6.93;1.95;;;;;;;;;;4966089;28;20392;-71
2022/12/30 13:08:19;;;;;;;7.78;1.92;;;;;;;;;;4962929;28;20078;-70
2022/12/30 13:11:10;;;;;;;4.53;1.50;;;;;;;;;;4965467;28;20511;-68
2022/12/30 13:14:10;;;;;;;6.22;1.65;;;;;;;;;;4929920;28;20047;-70
2022/12/30 13:16:41;;;;;;;6.00;1.90;;;;;;;;;;4962888;28;20062;-69
2022/12/30 13:19:16;;;;;;;6.18;2.13;;;;;;;;;;4963695;28;20097;-69
2022/12/30 13:21:45;;;;;;;10.70;1.70;;;;;;;;;;4955707;28;20055;-69
2022/12/30 13:24:23;;;;;;;6.95;1.77;;;;;;;;;;4957422;28;20046;-69
2022/12/30 13:26:50;;;;;;;6.47;1.50;;;;;;;;;;4957389;28;20136;-68
2022/12/30 13:29:16;;;;;;;8.18;1.80;;;;;;;;;;4958300;28;20237;-69
2022/12/30 13:32:09;;;;;;;5.53;1.58;;;;;;;;;;4966460;28;20042;-70
2022/12/30 13:34:35;;;;;;;6.88;1.45;;;;;;;;;;4962808;28;20073;-70
2022/12/30 13:37:16;;;;;;;7.63;1.85;;;;;;;;;;4953476;28;20420;-71
2022/12/30 13:40:16;;;;;;;10.93;2.00;;;;;;;;;;4953939;28;20127;-72
2022/12/30 13:43:23;;;;;;;5.47;1.70;;;;;;;;;;4952253;28;20057;-71
2022/12/30 13:45:53;;;;;;;4.45;2.13;;;;;;;;;;4954981;28;20569;-70
2022/12/30 13:48:22;;;;;;;6.93;1.60;;;;;;;;;;4960891;28;20058;-68
2022/12/30 13:51:02;;;;;;;7.63;1.45;;;;;;;;;;4960411;28;20057;-71
2022/12/30 13:53:45;;;;;;;8.00;1.90;;;;;;;;;;4958669;28;20173;-70
2022/12/30 13:56:17;;;;;;;4.25;1.38;;;;;;;;;;4958743;28;20051;-74
2022/12/30 13:58:53;;;;;;;5.65;1.90;;;;;;;;;;4967840;28;20070;-71
2022/12/30 14:01:19;;;;;;;4.13;1.50;;;;;;;;;;4965111;28;20050;-71
2022/12/30 14:03:46;;;;;;;6.32;2.10;;;;;;;;;;4962228;28;20077;-71
2022/12/30 14:06:40;;;;;;;7.60;2.05;;;;;;;;;;4964214;28;20046;-69
2022/12/30 14:09:15;;;;;;;7.80;1.80;;;;;;;;;;4962283;28;20075;-72
2022/12/30 14:12:06;;;;;;;5.28;1.85;;;;;;;;;;4959230;28;20098;-73
2022/12/30 14:14:33;;;;;;;5.97;1.67;;;;;;;;;;4958623;28;20098;-70
2022/12/30 14:17:15;;;;;;;4.47;1.65;;;;;;;;;;4964959;28;20051;-68
2022/12/30 14:20:13;;;;;;;8.82;1.98;;;;;;;;;;4962053;28;20047;-72
2022/12/30 14:22:42;;;;;;;6.47;1.48;;;;;;;;;;4952979;28;20496;-71
2022/12/30 14:25:13;;;;;;;5.13;1.90;;;;;;;;;;4951860;28;20109;-72
2022/12/30 14:27:47;;;;;;;5.32;1.77;;;;;;;;;;4955040;28;20039;-71
2022/12/30 14:30:18;;;;;;;5.97;1.77;;;;;;;;;;4960113;28;20147;-72
2022/12/30 14:32:45;;;;;;;12.48;2.50;;;;;;;;;;4964902;28;20050;-72
2022/12/30 14:35:16;;;;;;;6.55;2.13;;;;;;;;;;4973666;28;20055;-71
2022/12/30 14:37:43;;;;;;;8.50;2.63;;;;;;;;;;4962248;28;20047;-72
2022/12/30 14:40:33;;;;;;;10.02;2.70;;;;;;;;;;4964435;28;20137;-72
2022/12/30 14:42:59;;;;;;;5.88;2.22;;;;;;;;;;4949621;28;20485;-71
2022/12/30 14:45:26;;;;;;;10.02;3.10;;;;;;;;;;4953887;28;20062;-70
2022/12/30 14:47:53;;;;;;;8.82;2.80;;;;;;;;;;4959544;28;20057;-70
2022/12/30 14:50:26;;;;;;;9.15;2.13;;;;;;;;;;4961276;28;20043;-72
2022/12/30 14:53:03;;;;;;;12.73;2.20;;;;;;;;;;4958599;28;20118;-73
2022/12/30 14:55:33;;;;;;;7.35;1.73;;;;;;;;;;4961207;28;20158;-71
2022/12/30 14:58:19;;;;;;;4.65;1.80;;;;;;;;;;4961780;28;20043;-69
2022/12/30 15:00:52;;;;;;;6.32;1.67;;;;;;;;;;4959767;28;20129;-71
2022/12/30 15:03:21;;;;;;;4.75;1.92;;;;;;;;;;4966646;28;20065;-72
2022/12/30 15:05:56;;;;;;;5.53;1.88;;;;;;;;;;4954515;28;20058;-73
2022/12/30 15:08:22;;;;;;;8.00;2.00;;;;;;;;;;4962237;28;20050;-71
2022/12/30 15:10:56;;;;;;;7.85;2.10;;;;;;;;;;4964977;28;20114;-71
2022/12/30 15:13:26;;;;;;;7.00;1.92;;;;;;;;;;4966965;28;20043;-71
2022/12/30 15:16:03;;;;;;;7.43;2.25;;;;;;;;;;4958426;28;20334;-70
2022/12/30 15:18:34;;;;;;;6.90;1.90;;;;;;;;;;4959087;28;20071;-70
2022/12/30 15:21:24;;;;;;;8.57;1.80;;;;;;;;;;4957221;28;20050;-72
2022/12/30 15:23:59;;;;;;;7.35;2.28;;;;;;;;;;4964083;28;20051;-71
2022/12/30 15:26:27;;;;;;;10.15;2.10;;;;;;;;;;4958018;28;20050;-69
2022/12/30 15:28:54;;;;;;;8.52;1.77;;;;;;;;;;4950639;28;20054;-74
2022/12/30 15:31:23;;;;;;;12.65;2.33;;;;;;;;;;4945883;28;20134;-74
2022/12/30 15:33:56;;;;;;;10.57;2.35;;;;;;;;;;4949756;28;20141;-72
2022/12/30 15:36:23;;;;;;;7.20;1.90;;;;;;;;;;4944528;28;20051;-70
2022/12/30 15:38:51;;;;;;;7.50;2.08;;;;;;;;;;4947275;28;20053;-70
2022/12/30 15:41:29;;;;;;;7.07;2.00;;;;;;;;;;4928872;28;20138;-70
2022/12/30 15:43:59;;;;;;;10.35;2.10;;;;;;;;;;4944697;28;20058;-68
2022/12/30 15:46:29;;;;;;;12.30;1.88;;;;;;;;;;4941873;28;20102;-71
2022/12/30 15:49:22;;;;;;;7.57;1.85;;;;;;;;;;4942795;28;20461;-69
2022/12/30 15:51:54;;;;;;;5.78;1.98;;;;;;;;;;4950086;28;20057;-68
2022/12/30 15:54:30;;;;;;;8.32;2.33;;;;;;;;;;4945201;28;20054;-66
2022/12/30 15:56:59;;;;;;;4.78;2.45;;;;;;;;;;4951792;28;20119;-71
2022/12/30 15:59:40;;;;;;;7.00;1.80;;;;;;;;;;4948043;28;20515;-72
2022/12/30 16:02:16;;;;;;;8.57;1.75;;;;;;;;;;4957292;28;20079;-69